Time;durP1;ratioP1;P1;durP2;ratioP2;P2;SDS_P1;SDS_P2;PMS_P1;PMS_P2;Temp;Humidity;BMP_temperature;BMP_pressure;BME280_temperature;BME280_humidity;BME280_pressure;Samples;Min_cycle;Max_cycle;Signal;HPM_P1;HPM_P2
2022/07/15 00:02:13;;;;;;;3.83;2.20;;;17.80;99.90;;;;;;5109952;28;20408;-82
2022/07/15 00:04:57;;;;;;;8.77;3.40;;;17.50;99.90;;;;;;5096297;28;20388;-83
2022/07/15 00:07:42;;;;;;;4.90;3.13;;;17.30;99.90;;;;;;5110385;28;20474;-82
2022/07/15 00:10:28;;;;;;;5.20;2.60;;;17.30;99.90;;;;;;5100266;28;20387;-83
2022/07/15 00:13:12;;;;;;;4.30;2.70;;;17.00;99.90;;;;;;5107178;28;20399;-82
2022/07/15 00:15:57;;;;;;;2.57;2.37;;;17.10;99.90;;;;;;5135751;28;20371;-82
2022/07/15 00:18:41;;;;;;;3.37;2.70;;;17.40;99.90;;;;;;5135620;28;20444;-82
2022/07/15 00:21:26;;;;;;;4.27;2.87;;;17.40;99.90;;;;;;5135149;28;20466;-83
2022/07/15 00:24:10;;;;;;;5.93;2.57;;;17.30;99.90;;;;;;5136028;28;20395;-82
2022/07/15 00:26:55;;;;;;;4.23;2.50;;;17.40;99.90;;;;;;5135094;28;20446;-82
2022/07/15 00:29:39;;;;;;;3.50;2.60;;;17.40;99.90;;;;;;5135083;28;20394;-82
2022/07/15 00:32:24;;;;;;;4.87;2.80;;;17.60;99.90;;;;;;5136405;28;20407;-82
2022/07/15 00:35:09;;;;;;;6.23;2.30;;;17.80;99.90;;;;;;5135925;28;20459;-82
2022/07/15 00:37:53;;;;;;;5.07;2.50;;;17.90;99.90;;;;;;5136851;28;20375;-82
2022/07/15 00:40:41;;;;;;;3.03;2.23;;;18.00;99.90;;;;;;5139642;28;20478;-82
2022/07/15 00:43:25;;;;;;;4.43;2.00;;;18.00;99.90;;;;;;5140295;28;20377;-82
2022/07/15 00:46:13;;;;;;;2.37;2.17;;;18.00;99.90;;;;;;5139529;28;20438;-82
2022/07/15 00:48:59;;;;;;;8.73;2.30;;;17.50;99.90;;;;;;5141057;28;20391;-82
2022/07/15 00:51:47;;;;;;;2.80;2.60;;;17.20;99.90;;;;;;5140942;28;20449;-82
2022/07/15 00:54:32;;;;;;;6.60;1.93;;;17.00;99.90;;;;;;5140598;28;20383;-82
2022/07/15 00:57:17;;;;;;;2.53;2.33;;;16.90;99.90;;;;;;5140673;28;20429;-80
2022/07/15 01:00:04;;;;;;;4.70;1.97;;;16.70;99.90;;;;;;5139973;28;20485;-82
2022/07/15 01:02:50;;;;;;;2.00;1.90;;;16.60;99.90;;;;;;5140263;28;20394;-81
2022/07/15 01:05:35;;;;;;;2.77;2.00;;;16.50;99.90;;;;;;5139129;28;20446;-82
2022/07/15 01:08:20;;;;;;;2.07;1.97;;;16.40;99.90;;;;;;5140481;28;20471;-83
2022/07/15 01:11:05;;;;;;;5.50;2.93;;;16.50;99.90;;;;;;5135718;28;20395;-82
2022/07/15 01:13:49;;;;;;;6.43;3.60;;;16.80;99.90;;;;;;5133719;28;20474;-82
2022/07/15 01:16:34;;;;;;;3.57;2.40;;;17.10;99.90;;;;;;5134072;28;20474;-81
2022/07/15 01:19:18;;;;;;;3.17;2.57;;;17.20;99.90;;;;;;5134541;28;20399;-83
2022/07/15 01:22:03;;;;;;;3.17;2.30;;;17.30;99.90;;;;;;5134070;28;20402;-83
2022/07/15 01:24:47;;;;;;;2.50;2.30;;;17.40;99.90;;;;;;5134285;28;20384;-82
2022/07/15 01:27:32;;;;;;;2.80;2.40;;;17.40;99.90;;;;;;5134804;28;20432;-82
2022/07/15 01:30:17;;;;;;;3.67;2.23;;;17.50;99.90;;;;;;5134150;28;20374;-82
2022/07/15 01:33:01;;;;;;;5.10;3.07;;;17.40;99.90;;;;;;5133902;28;20379;-82
2022/07/15 01:35:46;;;;;;;3.43;3.13;;;17.40;99.90;;;;;;5134660;28;20427;-83
2022/07/15 01:38:30;;;;;;;5.00;2.63;;;17.40;99.90;;;;;;5133910;28;20871;-82
2022/07/15 01:41:15;;;;;;;2.50;2.30;;;17.50;99.90;;;;;;5133931;28;20399;-82
2022/07/15 01:44:00;;;;;;;3.00;2.23;;;17.40;99.90;;;;;;5133777;28;20509;-82
2022/07/15 01:46:45;;;;;;;6.83;2.33;;;17.40;99.90;;;;;;5133585;28;20472;-83
2022/07/15 01:49:31;;;;;;;10.23;3.30;;;17.30;99.90;;;;;;5136238;28;20402;-82
2022/07/15 01:52:17;;;;;;;6.40;3.07;;;17.10;99.90;;;;;;5140751;28;20383;-82
2022/07/15 01:55:03;;;;;;;13.20;2.93;;;17.10;99.90;;;;;;5136233;28;20390;-83
2022/07/15 01:57:49;;;;;;;9.70;3.73;;;17.10;99.90;;;;;;5135041;28;20379;-83
2022/07/15 02:00:33;;;;;;;6.80;3.10;;;17.10;99.90;;;;;;5134133;28;20410;-83
2022/07/15 02:03:18;;;;;;;3.23;2.83;;;17.20;99.90;;;;;;5133122;28;20394;-83
2022/07/15 02:06:03;;;;;;;5.10;3.07;;;17.20;99.90;;;;;;5133978;28;20439;-81
2022/07/15 02:08:47;;;;;;;6.53;3.17;;;17.10;99.90;;;;;;5132410;28;20901;-83
2022/07/15 02:11:33;;;;;;;4.97;2.90;;;17.00;99.90;;;;;;5133471;28;20384;-82
2022/07/15 02:14:17;;;;;;;4.27;2.80;;;16.80;99.90;;;;;;5133199;28;20387;-83
2022/07/15 02:17:03;;;;;;;7.53;3.63;;;16.70;99.90;;;;;;5133240;28;20434;-82
2022/07/15 02:19:48;;;;;;;4.23;3.83;;;16.60;99.90;;;;;;5132767;28;20394;-83
2022/07/15 02:22:32;;;;;;;3.27;2.97;;;16.60;99.90;;;;;;5133209;28;20456;-83
2022/07/15 02:25:18;;;;;;;4.73;3.07;;;16.50;99.90;;;;;;5132873;28;20390;-83
2022/07/15 02:28:05;;;;;;;4.27;2.77;;;16.60;99.90;;;;;;5131750;28;20388;-82
2022/07/15 02:30:49;;;;;;;3.50;2.70;;;16.60;99.90;;;;;;5132544;28;20384;-83
2022/07/15 02:33:33;;;;;;;5.17;3.03;;;16.60;99.90;;;;;;5133294;28;20403;-83
2022/07/15 02:36:18;;;;;;;2.50;2.13;;;16.60;99.90;;;;;;5133205;28;20407;-83
2022/07/15 02:39:03;;;;;;;7.83;3.47;;;16.60;99.90;;;;;;5133425;28;20391;-82
2022/07/15 02:41:48;;;;;;;2.67;2.40;;;16.60;99.90;;;;;;5133058;28;20784;-82
2022/07/15 02:44:33;;;;;;;5.43;3.33;;;16.50;99.90;;;;;;5133645;28;20399;-82
2022/07/15 02:47:17;;;;;;;3.53;2.60;;;16.50;99.90;;;;;;5133918;28;20438;-83
2022/07/15 02:50:02;;;;;;;2.90;2.70;;;16.50;99.90;;;;;;5133092;28;20432;-83
2022/07/15 02:52:46;;;;;;;5.67;3.80;;;16.50;99.90;;;;;;5134272;28;20395;-83
2022/07/15 02:55:31;;;;;;;5.93;3.00;;;16.40;99.90;;;;;;5134336;28;20387;-83
2022/07/15 02:58:16;;;;;;;5.93;3.57;;;16.30;99.90;;;;;;5132734;28;20425;-83
2022/07/15 03:01:01;;;;;;;10.83;2.77;;;16.30;99.90;;;;;;5133827;28;20419;-83
2022/07/15 03:03:45;;;;;;;20.37;3.47;;;16.30;99.90;;;;;;5133595;28;20472;-83
2022/07/15 03:06:30;;;;;;;15.10;3.87;;;16.10;99.90;;;;;;5133761;28;20465;-83
2022/07/15 03:09:14;;;;;;;5.70;3.20;;;16.20;99.90;;;;;;5135043;28;20399;-83
2022/07/15 03:11:58;;;;;;;4.80;3.30;;;16.00;99.90;;;;;;5138917;28;20383;-82
2022/07/15 03:14:43;;;;;;;7.83;3.33;;;16.10;99.90;;;;;;5139252;28;20398;-82
2022/07/15 03:17:27;;;;;;;3.10;2.80;;;16.10;99.90;;;;;;5138955;28;20463;-81
2022/07/15 03:20:12;;;;;;;3.60;3.30;;;16.10;99.90;;;;;;5138999;28;20387;-83
2022/07/15 03:22:56;;;;;;;5.90;3.33;;;16.10;99.90;;;;;;5138863;28;20410;-82
2022/07/15 03:25:40;;;;;;;10.10;3.20;;;16.10;99.90;;;;;;5138650;28;20462;-81
2022/07/15 03:28:24;;;;;;;3.97;3.03;;;16.10;99.90;;;;;;5138737;28;20394;-83
2022/07/15 03:31:11;;;;;;;3.20;2.83;;;16.00;99.90;;;;;;5133354;28;20399;-83
2022/07/15 03:33:56;;;;;;;3.60;3.00;;;16.00;99.90;;;;;;5132635;28;20383;-82
2022/07/15 03:36:40;;;;;;;16.00;3.23;;;16.10;99.90;;;;;;5129305;28;20405;-82
2022/07/15 03:39:25;;;;;;;10.37;4.77;;;16.10;99.90;;;;;;5131088;28;20467;-83
2022/07/15 03:42:09;;;;;;;3.27;2.80;;;16.00;99.90;;;;;;5131393;28;20445;-83
2022/07/15 03:44:54;;;;;;;7.03;3.20;;;16.00;99.90;;;;;;5131602;28;20391;-83
2022/07/15 03:47:38;;;;;;;5.03;3.47;;;15.90;99.90;;;;;;5126113;28;20426;-82
2022/07/15 03:50:23;;;;;;;3.27;3.07;;;16.00;99.90;;;;;;5128379;28;20763;-85
2022/07/15 03:53:08;;;;;;;5.30;3.03;;;16.00;99.90;;;;;;5129062;28;20762;-83
2022/07/15 03:55:52;;;;;;;10.07;3.47;;;15.60;99.90;;;;;;5127972;28;20511;-82
2022/07/15 03:58:37;;;;;;;7.10;3.23;;;15.30;99.90;;;;;;5129196;28;20480;-82
2022/07/15 04:01:22;;;;;;;3.53;2.93;;;15.40;99.90;;;;;;5133484;28;20375;-82
2022/07/15 04:04:07;;;;;;;8.53;3.63;;;15.40;99.90;;;;;;5138111;27;20390;-81
2022/07/15 04:06:51;;;;;;;3.70;3.40;;;15.50;99.90;;;;;;5137638;28;20437;-82
2022/07/15 04:09:36;;;;;;;6.13;4.33;;;15.50;99.90;;;;;;5137664;28;20438;-81
2022/07/15 04:12:21;;;;;;;5.03;3.70;;;15.50;99.90;;;;;;5132704;28;20383;-83
2022/07/15 04:15:07;;;;;;;12.40;3.10;;;14.80;99.90;;;;;;5132166;28;20394;-82
2022/07/15 04:17:51;;;;;;;3.30;3.00;;;14.30;99.90;;;;;;5135278;28;20382;-83
2022/07/15 04:20:36;;;;;;;4.70;3.43;;;14.30;99.90;;;;;;5138517;28;20407;-82
2022/07/15 04:23:21;;;;;;;5.33;2.80;;;14.20;99.90;;;;;;5138029;28;20391;-80
2022/07/15 04:26:06;;;;;;;3.63;3.40;;;14.20;99.90;;;;;;5138064;28;20443;-81
2022/07/15 04:28:50;;;;;;;4.30;3.03;;;13.80;99.90;;;;;;5138452;28;20418;-82
2022/07/15 04:31:35;;;;;;;4.90;3.77;;;14.10;99.90;;;;;;5138606;28;20394;-82
2022/07/15 04:34:20;;;;;;;3.50;3.20;;;14.30;99.90;;;;;;5131038;28;20407;-81
2022/07/15 04:37:04;;;;;;;3.43;3.13;;;14.20;99.90;;;;;;5136961;28;20441;-82
2022/07/15 04:39:49;;;;;;;2.57;2.37;;;14.10;99.90;;;;;;5131300;28;20403;-82
2022/07/15 04:42:33;;;;;;;5.27;3.57;;;14.10;99.90;;;;;;5086823;28;20407;-83
2022/07/15 04:46:05;;;;;;;9.03;3.27;;;14.10;99.90;;;;;;5102586;28;20430;-83
2022/07/15 04:51:49;;;;;;;5.67;3.50;;;14.40;99.90;;;;;;5027585;28;20380;-82
2022/07/15 04:54:33;;;;;;;4.93;3.20;;;14.50;99.90;;;;;;5026627;28;20518;-82
2022/07/15 04:57:18;;;;;;;4.17;3.63;;;14.30;99.90;;;;;;5013830;28;20454;-82
2022/07/15 05:00:04;;;;;;;4.97;4.57;;;14.50;99.90;;;;;;5031812;28;20474;-83
2022/07/15 05:02:49;;;;;;;4.50;3.60;;;14.60;99.90;;;;;;5031109;28;20520;-84
2022/07/15 05:05:34;;;;;;;4.47;4.10;;;14.40;99.90;;;;;;5029222;28;20502;-82
2022/07/15 05:08:20;;;;;;;8.60;4.03;;;14.40;99.90;;;;;;5028809;28;20450;-82
2022/07/15 05:11:04;;;;;;;3.57;3.23;;;14.40;99.90;;;;;;5020577;28;20454;-83
2022/07/15 05:13:49;;;;;;;5.90;3.70;;;14.50;99.90;;;;;;5030414;28;20461;-83
2022/07/15 05:16:33;;;;;;;7.80;4.53;;;14.50;99.90;;;;;;5030397;28;20488;-83
2022/07/15 05:19:18;;;;;;;8.70;3.37;;;14.50;99.90;;;;;;5020898;28;20435;-83
2022/07/15 05:22:02;;;;;;;4.67;3.70;;;15.10;99.90;;;;;;5012820;28;20436;-83
2022/07/15 05:24:47;;;;;;;3.53;3.23;;;15.60;99.90;;;;;;5062288;28;20435;-83
2022/07/15 05:27:31;;;;;;;7.00;3.87;;;15.50;99.90;;;;;;5134469;28;20438;-83
2022/07/15 05:30:16;;;;;;;12.10;5.63;;;15.40;99.90;;;;;;5115148;28;20407;-84
2022/07/15 05:33:00;;;;;;;3.67;3.37;;;15.60;99.90;;;;;;5127254;28;20540;-83
2022/07/15 05:35:46;;;;;;;7.60;3.87;;;15.50;99.90;;;;;;5133167;28;20387;-82
2022/07/15 05:38:30;;;;;;;4.30;3.57;;;15.50;99.90;;;;;;5075297;28;20485;-83
2022/07/15 05:41:15;;;;;;;3.30;2.93;;;15.50;99.90;;;;;;5089917;28;20404;-83
2022/07/15 05:44:00;;;;;;;3.93;3.63;;;15.60;99.90;;;;;;5087027;28;20527;-84
2022/07/15 05:46:44;;;;;;;10.73;3.20;;;15.60;99.90;;;;;;5075891;28;20464;-83
2022/07/15 05:49:29;;;;;;;4.43;4.03;;;15.80;99.90;;;;;;5069997;28;20817;-84
2022/07/15 05:52:13;;;;;;;9.23;3.30;;;16.00;99.90;;;;;;5083717;28;20453;-83
2022/07/15 05:54:58;;;;;;;4.00;3.70;;;16.20;99.90;;;;;;5087943;28;20437;-84
2022/07/15 05:57:43;;;;;;;8.30;4.13;;;16.10;99.90;;;;;;5064835;28;20459;-83
2022/07/15 06:00:27;;;;;;;5.37;3.33;;;16.60;99.90;;;;;;5081903;28;20448;-84
2022/07/15 06:03:11;;;;;;;8.63;3.70;;;16.70;99.90;;;;;;5071184;28;20445;-84
2022/07/15 06:05:56;;;;;;;4.30;3.90;;;16.80;99.90;;;;;;5067836;28;20442;-83
2022/07/15 06:08:40;;;;;;;4.07;3.67;;;16.30;99.90;;;;;;5099576;28;20422;-83
2022/07/15 06:11:24;;;;;;;3.37;3.07;;;16.70;99.90;;;;;;5119729;28;20427;-83
2022/07/15 06:14:09;;;;;;;10.20;4.13;;;16.80;99.90;;;;;;5116537;28;20427;-83
2022/07/15 06:16:53;;;;;;;6.67;3.47;;;17.00;99.90;;;;;;5109112;28;20427;-83
2022/07/15 06:19:38;;;;;;;6.20;3.47;;;17.20;99.90;;;;;;5118983;27;20458;-84
2022/07/15 06:22:22;;;;;;;4.77;3.37;;;17.30;99.90;;;;;;5100763;28;20431;-83
2022/07/15 06:25:08;;;;;;;5.60;3.77;;;16.90;99.90;;;;;;5116487;28;20542;-84
2022/07/15 06:27:52;;;;;;;7.00;4.27;;;17.00;99.90;;;;;;5096955;28;20960;-83
2022/07/15 06:30:36;;;;;;;8.67;4.77;;;16.60;99.90;;;;;;5117557;27;20410;-82
2022/07/15 06:33:23;;;;;;;6.63;4.30;;;17.00;99.90;;;;;;5116124;28;20423;-82
2022/07/15 06:36:07;;;;;;;6.65;4.57;;;17.60;99.90;;;;;;5120439;28;20426;-81
2022/07/15 06:38:51;;;;;;;5.43;3.63;;;17.90;99.90;;;;;;5116741;28;20181;-84
2022/07/15 06:41:36;;;;;;;8.70;4.20;;;18.00;99.90;;;;;;5114501;27;20510;-83
2022/07/15 06:44:21;;;;;;;7.83;4.77;;;18.10;99.90;;;;;;5114037;28;20412;-82
2022/07/15 06:47:06;;;;;;;6.97;4.60;;;17.80;99.90;;;;;;5116048;28;20466;-83
2022/07/15 06:49:51;;;;;;;6.53;4.20;;;18.10;99.90;;;;;;5119816;28;20431;-83
2022/07/15 06:52:36;;;;;;;8.73;6.10;;;18.20;99.90;;;;;;5116015;28;20460;-84
2022/07/15 06:55:20;;;;;;;6.73;4.63;;;18.20;99.90;;;;;;5101643;28;20426;-83
2022/07/15 06:58:04;;;;;;;3.63;3.33;;;18.30;99.90;;;;;;5083078;28;20444;-83
2022/07/15 07:00:49;;;;;;;13.73;3.70;;;17.90;99.90;;;;;;5117793;27;20457;-83
2022/07/15 07:03:33;;;;;;;6.23;3.40;;;17.90;99.90;;;;;;5117550;28;20423;-84
2022/07/15 07:06:17;;;;;;;5.60;3.00;;;18.30;99.90;;;;;;5115262;28;20485;-84
2022/07/15 07:09:02;;;;;;;7.80;3.10;;;18.40;99.90;;;;;;5124783;28;20449;-84
2022/07/15 07:11:46;;;;;;;8.20;3.30;;;18.00;99.90;;;;;;5101529;28;20594;-81
2022/07/15 07:14:31;;;;;;;3.97;2.80;;;18.20;99.90;;;;;;5097803;28;20482;-84
2022/07/15 07:17:16;;;;;;;3.57;3.13;;;17.80;99.90;;;;;;5106572;28;20426;-84
2022/07/15 07:20:00;;;;;;;3.57;2.77;;;17.70;99.90;;;;;;5124528;28;20498;-83
2022/07/15 07:22:45;;;;;;;4.60;3.03;;;17.50;99.90;;;;;;5118260;28;20430;-83
2022/07/15 07:25:29;;;;;;;3.27;2.50;;;17.70;99.90;;;;;;5114474;28;20471;-84
2022/07/15 07:28:13;;;;;;;3.10;2.90;;;17.60;99.90;;;;;;5120568;28;20465;-83
2022/07/15 07:30:59;;;;;;;2.33;2.13;;;17.60;99.90;;;;;;5125191;27;20399;-84
2022/07/15 07:33:44;;;;;;;4.90;3.10;;;17.70;99.90;;;;;;5119150;28;20440;-84
2022/07/15 07:36:29;;;;;;;7.63;2.70;;;18.10;99.90;;;;;;5116713;28;20427;-85
2022/07/15 07:39:14;;;;;;;2.87;2.67;;;18.30;99.90;;;;;;5114424;28;20440;-84
2022/07/15 07:42:07;;;;;;;3.17;2.17;;;18.50;99.90;;;;;;5116359;28;20434;-84
2022/07/15 07:44:55;;;;;;;6.03;2.57;;;18.70;99.90;;;;;;5067092;28;20490;-84
2022/07/15 07:47:40;;;;;;;4.37;2.57;;;18.60;99.90;;;;;;5083598;28;20455;-82
2022/07/15 07:50:25;;;;;;;3.73;2.10;;;18.80;99.90;;;;;;5086623;28;20496;-83
2022/07/15 07:53:10;;;;;;;3.87;2.70;;;19.10;99.90;;;;;;5078392;28;20439;-82
2022/07/15 07:55:55;;;;;;;10.60;2.53;;;19.20;99.90;;;;;;5093055;28;20452;-82
2022/07/15 07:58:39;;;;;;;7.97;2.27;;;18.90;99.90;;;;;;5099962;28;21165;-84
2022/07/15 08:01:24;;;;;;;2.90;2.60;;;18.90;99.90;;;;;;5077591;28;20430;-82
2022/07/15 08:04:10;;;;;;;4.43;2.20;;;19.10;99.90;;;;;;5086730;28;20415;-83
2022/07/15 08:06:55;;;;;;;2.47;2.00;;;19.60;99.90;;;;;;5097770;28;20460;-84
2022/07/15 08:09:59;;;;;;;2.50;2.30;;;19.70;99.90;;;;;;5062920;28;20499;-84
2022/07/15 08:12:44;;;;;;;4.37;2.30;;;19.30;99.90;;;;;;5050039;28;20457;-84
2022/07/15 08:15:28;;;;;;;2.97;2.17;;;19.20;99.90;;;;;;5048495;28;20461;-84
2022/07/15 08:18:13;;;;;;;4.17;2.67;;;19.50;99.90;;;;;;5061127;28;20453;-82
2022/07/15 08:20:58;;;;;;;9.03;2.17;;;20.10;99.90;;;;;;5048042;28;20416;-81
2022/07/15 08:23:42;;;;;;;4.03;1.80;;;20.40;99.90;;;;;;5061003;28;20437;-83
2022/07/15 08:26:27;;;;;;;2.57;1.80;;;20.10;99.90;;;;;;5045331;28;20509;-84
2022/07/15 08:29:11;;;;;;;4.33;2.00;;;20.00;99.90;;;;;;5042755;28;20449;-82
2022/07/15 08:31:56;;;;;;;3.57;2.20;;;20.00;99.90;;;;;;5067882;28;20506;-84
2022/07/15 08:34:41;;;;;;;2.40;2.20;;;20.50;99.90;;;;;;5052266;28;20528;-84
2022/07/15 08:37:26;;;;;;;3.97;2.50;;;20.30;99.90;;;;;;5068271;28;20509;-82
2022/07/15 08:40:12;;;;;;;3.40;2.13;;;19.90;99.90;;;;;;5081121;28;20427;-85
2022/07/15 08:42:57;;;;;;;3.93;2.17;;;19.90;99.90;;;;;;5102620;28;20470;-83
2022/07/15 08:45:43;;;;;;;4.83;2.87;;;20.60;99.90;;;;;;5053307;28;20465;-84
2022/07/15 08:48:34;;;;;;;4.20;3.13;;;20.90;99.90;;;;;;5057293;28;20464;-83
2022/07/15 08:51:23;;;;;;;2.50;2.30;;;21.10;99.90;;;;;;5040950;28;20460;-83
2022/07/15 08:54:08;;;;;;;2.40;1.73;;;21.30;99.90;;;;;;5038251;28;20425;-82
2022/07/15 08:56:53;;;;;;;4.93;2.20;;;21.30;99.90;;;;;;5019152;28;20484;-83
2022/07/15 08:59:42;;;;;;;2.97;2.43;;;21.40;99.90;;;;;;5044719;28;20539;-84
2022/07/15 09:02:30;;;;;;;3.10;2.07;;;21.60;99.90;;;;;;5044639;28;20438;-78
2022/07/15 09:05:28;;;;;;;7.47;2.07;;;21.70;99.90;;;;;;5047473;28;20527;-82
2022/07/15 09:08:15;;;;;;;3.00;2.30;;;21.50;99.90;;;;;;5050138;28;21029;-83
2022/07/15 09:11:00;;;;;;;2.80;2.30;;;20.40;99.90;;;;;;5048592;28;20499;-82
2022/07/15 09:13:46;;;;;;;2.00;1.90;;;20.70;99.90;;;;;;5053115;28;20424;-82
2022/07/15 09:16:50;;;;;;;3.63;2.00;;;20.40;99.90;;;;;;5047346;28;20449;-80
2022/07/15 09:20:09;;;;;;;3.67;2.07;;;20.70;99.90;;;;;;5071768;28;20518;-83
2022/07/15 09:22:56;;;;;;;2.43;2.23;;;21.30;99.90;;;;;;5080729;28;20442;-83
2022/07/15 09:25:40;;;;;;;2.60;2.40;;;21.50;99.90;;;;;;5070457;28;20473;-82
2022/07/15 09:28:44;;;;;;;6.20;2.30;;;21.50;99.90;;;;;;5067381;28;20488;-83
2022/07/15 09:35:01;;;;;;;6.40;2.33;;;21.50;99.90;;;;;;5073591;28;20563;-83
2022/07/15 09:38:07;;;;;;;1.87;1.53;;;21.90;99.90;;;;;;5074596;28;20555;-82
2022/07/15 09:40:52;;;;;;;6.50;2.50;;;22.10;99.90;;;;;;5077328;28;20434;-81
2022/07/15 09:43:49;;;;;;;7.50;2.10;;;22.30;99.90;;;;;;5077087;28;20421;-82
2022/07/15 09:46:57;;;;;;;1.97;1.70;;;22.30;99.90;;;;;;5075362;28;20476;-82
2022/07/15 09:49:41;;;;;;;5.77;2.57;;;22.00;99.90;;;;;;5119516;28;20449;-83
2022/07/15 09:52:46;;;;;;;2.20;2.10;;;21.20;99.90;;;;;;5119668;28;20418;-82
2022/07/15 09:55:30;;;;;;;4.77;2.53;;;21.50;99.90;;;;;;5117139;28;20519;-80
2022/07/15 09:58:15;;;;;;;6.30;2.80;;;21.60;99.90;;;;;;5123720;28;20490;-82
2022/07/15 10:01:00;;;;;;;3.07;2.23;;;21.20;99.90;;;;;;5101861;28;20427;-83
2022/07/15 10:03:45;;;;;;;2.00;1.80;;;21.00;99.90;;;;;;5113871;27;20487;-81
2022/07/15 10:06:31;;;;;;;4.27;2.97;;;21.00;99.90;;;;;;5127914;27;20465;-80
2022/07/15 10:09:22;;;;;;;3.33;2.17;;;21.10;99.90;;;;;;5115831;28;20491;-81
2022/07/15 10:12:12;;;;;;;3.53;2.30;;;21.30;99.90;;;;;;5115965;28;20426;-83
2022/07/15 10:15:24;;;;;;;2.33;2.13;;;20.90;99.90;;;;;;5092800;28;20416;-82
2022/07/15 10:18:31;;;;;;;2.63;2.07;;;20.90;99.90;;;;;;5096024;27;20574;-79
2022/07/15 10:21:56;;;;;;;5.60;2.07;;;21.30;99.90;;;;;;5096989;28;20451;-83
2022/07/15 10:25:05;;;;;;;4.53;2.30;;;21.50;99.90;;;;;;5119945;28;20462;-84
2022/07/15 10:28:15;;;;;;;2.37;2.17;;;22.10;99.90;;;;;;5109101;28;20438;-83
2022/07/15 10:31:20;;;;;;;4.50;2.10;;;22.80;99.90;;;;;;5085285;28;20478;-83
2022/07/15 10:34:21;;;;;;;6.13;2.53;;;22.70;99.90;;;;;;5106113;28;20181;-82
2022/07/15 10:37:10;;;;;;;3.80;2.20;;;21.50;99.90;;;;;;5130360;27;20431;-83
2022/07/15 10:40:06;;;;;;;3.37;2.67;;;22.20;99.90;;;;;;5111641;28;20468;-81
2022/07/15 10:43:01;;;;;;;2.67;2.30;;;22.80;99.90;;;;;;5099668;27;20478;-84
2022/07/15 10:46:04;;;;;;;4.03;2.20;;;22.70;99.90;;;;;;5087347;28;20481;-84
2022/07/15 10:49:12;;;;;;;4.37;2.53;;;22.20;99.90;;;;;;5101694;28;20422;-84
2022/07/15 10:52:13;;;;;;;3.37;2.70;;;22.00;99.90;;;;;;5105961;28;20430;-85
2022/07/15 10:55:05;;;;;;;2.60;2.40;;;22.60;99.90;;;;;;5124597;28;20409;-83
2022/07/15 10:57:53;;;;;;;4.60;2.63;;;22.60;99.90;;;;;;5125348;28;20489;-83
2022/07/15 11:00:40;;;;;;;2.90;2.70;;;22.50;99.90;;;;;;5093497;28;20455;-84
2022/07/15 11:03:26;;;;;;;2.90;2.00;;;22.40;99.90;;;;;;5069835;28;20432;-82
2022/07/15 11:06:11;;;;;;;2.57;2.37;;;22.50;99.90;;;;;;5088461;28;20456;-86
2022/07/15 11:08:56;;;;;;;2.53;2.30;;;23.40;99.90;;;;;;5070433;28;20463;-85
2022/07/15 11:11:46;;;;;;;5.83;2.43;;;22.70;98.80;;;;;;5076599;28;20490;-84
2022/07/15 11:14:49;;;;;;;2.43;2.23;;;22.70;99.90;;;;;;5067443;28;20457;-85
2022/07/15 11:17:41;;;;;;;2.60;2.40;;;22.90;99.90;;;;;;5047694;28;20457;-86
2022/07/15 11:20:30;;;;;;;2.40;2.20;;;23.10;99.80;;;;;;5032383;28;20501;-85
2022/07/15 11:23:16;;;;;;;1.80;1.70;;;23.30;99.90;;;;;;5042828;28;20515;-86
2022/07/15 11:26:01;;;;;;;3.40;2.13;;;23.60;97.00;;;;;;5055044;28;20989;-85
2022/07/15 11:28:50;;;;;;;1.90;1.80;;;23.50;94.30;;;;;;5045600;28;20471;-84
2022/07/15 11:31:40;;;;;;;3.60;2.10;;;23.70;96.20;;;;;;5041989;28;20425;-84
2022/07/15 11:34:24;;;;;;;2.43;2.23;;;23.50;96.70;;;;;;5045964;28;20449;-83
2022/07/15 11:37:11;;;;;;;6.20;2.17;;;23.50;95.30;;;;;;5047522;28;20445;-83
2022/07/15 11:46:15;;;;;;;3.00;2.70;;;23.60;98.40;;;;;;5076249;28;20520;-80
2022/07/15 11:48:59;;;;;;;3.63;2.10;;;23.50;97.10;;;;;;5083359;28;20424;-84
2022/07/15 11:51:44;;;;;;;3.03;2.73;;;24.30;93.50;;;;;;5082646;28;20462;-84
2022/07/15 11:54:29;;;;;;;3.40;2.90;;;24.90;92.10;;;;;;5083116;28;20814;-83
2022/07/15 11:57:14;;;;;;;2.33;2.13;;;25.40;93.60;;;;;;5059142;28;20536;-84
2022/07/15 11:59:59;;;;;;;1.97;1.87;;;25.80;88.70;;;;;;5102991;28;20523;-84
2022/07/15 12:02:44;;;;;;;4.20;2.80;;;26.10;90.40;;;;;;5092636;28;20429;-83
2022/07/15 12:05:28;;;;;;;2.23;2.03;;;25.70;90.20;;;;;;5103983;28;20437;-84
2022/07/15 12:08:13;;;;;;;2.90;2.40;;;25.20;91.80;;;;;;5106490;28;20573;-83
2022/07/15 12:10:57;;;;;;;3.37;2.00;;;24.80;91.50;;;;;;5107412;28;20442;-82
2022/07/15 12:13:44;;;;;;;3.73;2.40;;;24.30;88.40;;;;;;5109818;28;20476;-82
2022/07/15 12:16:47;;;;;;;2.47;2.27;;;24.10;89.60;;;;;;5109865;28;20459;-83
2022/07/15 12:19:33;;;;;;;2.57;2.37;;;24.00;90.90;;;;;;5108653;28;20504;-81
2022/07/15 12:22:17;;;;;;;2.10;1.90;;;23.90;89.00;;;;;;5108728;27;20418;-82
2022/07/15 12:25:02;;;;;;;2.10;2.00;;;23.90;91.10;;;;;;5105453;28;20422;-84
2022/07/15 12:27:48;;;;;;;2.33;1.97;;;24.00;94.80;;;;;;5114714;27;20964;-84
2022/07/15 12:30:35;;;;;;;2.90;2.03;;;24.10;91.40;;;;;;5106520;28;20419;-83
2022/07/15 12:33:21;;;;;;;3.73;2.40;;;24.40;92.10;;;;;;5115921;28;20525;-83
2022/07/15 12:36:17;;;;;;;3.07;2.00;;;25.10;91.40;;;;;;5111105;28;20487;-83
2022/07/15 12:39:12;;;;;;;2.40;2.00;;;25.40;87.40;;;;;;5088765;28;20977;-82
2022/07/15 12:42:00;;;;;;;3.20;2.20;;;25.90;82.00;;;;;;5107920;27;20472;-83
2022/07/15 12:44:44;;;;;;;4.63;1.70;;;25.10;81.70;;;;;;5095437;28;20695;-82
2022/07/15 12:47:29;;;;;;;2.40;1.77;;;25.20;85.40;;;;;;5098204;28;20786;-81
2022/07/15 12:50:13;;;;;;;2.77;2.30;;;25.10;82.10;;;;;;5101165;28;20513;-83
2022/07/15 12:52:58;;;;;;;3.23;2.10;;;24.90;83.40;;;;;;5113273;28;20438;-82
2022/07/15 12:55:45;;;;;;;2.23;2.03;;;24.70;84.20;;;;;;5111634;27;20438;-82
2022/07/15 12:58:31;;;;;;;2.43;2.23;;;24.70;84.90;;;;;;5099888;28;20458;-83
2022/07/15 13:01:15;;;;;;;5.43;2.37;;;24.90;88.30;;;;;;5110352;28;20422;-83
2022/07/15 13:03:59;;;;;;;2.10;2.00;;;24.70;85.80;;;;;;5116176;28;20411;-83
2022/07/15 13:06:44;;;;;;;3.83;2.57;;;24.90;85.90;;;;;;5108759;28;20810;-82
2022/07/15 13:09:29;;;;;;;3.00;2.17;;;25.10;85.20;;;;;;5120187;28;20462;-82
2022/07/15 13:12:14;;;;;;;2.70;2.50;;;25.40;85.70;;;;;;5081567;28;20463;-82
2022/07/15 13:14:58;;;;;;;2.60;2.40;;;25.50;83.50;;;;;;5117672;28;20426;-83
2022/07/15 13:17:43;;;;;;;1.93;1.83;;;26.10;79.60;;;;;;5107736;28;20488;-83
2022/07/15 13:20:28;;;;;;;2.77;2.47;;;26.70;80.90;;;;;;5115803;28;20450;-83
2022/07/15 13:23:13;;;;;;;2.43;2.13;;;26.40;81.20;;;;;;5103968;28;20503;-82
2022/07/15 13:25:57;;;;;;;2.47;2.10;;;26.30;82.40;;;;;;5121256;28;20508;-82
2022/07/15 13:28:42;;;;;;;2.70;2.50;;;26.10;81.90;;;;;;5099206;28;20499;-82
2022/07/15 13:31:26;;;;;;;2.77;1.90;;;25.70;81.60;;;;;;5110830;28;20429;-83
2022/07/15 13:34:10;;;;;;;2.43;2.27;;;25.50;83.80;;;;;;5110227;28;20465;-83
2022/07/15 13:36:55;;;;;;;2.90;2.70;;;25.10;87.20;;;;;;5102857;28;20503;-84
2022/07/15 13:39:42;;;;;;;2.07;1.87;;;25.80;89.40;;;;;;5107714;28;20426;-83
2022/07/15 13:42:28;;;;;;;3.70;2.50;;;26.50;81.40;;;;;;5103874;28;20515;-82
2022/07/15 13:45:13;;;;;;;6.10;2.27;;;26.50;82.00;;;;;;5107219;28;20480;-84
2022/07/15 13:47:58;;;;;;;2.67;2.40;;;26.40;84.60;;;;;;5112156;28;20437;-82
2022/07/15 13:53:43;;;;;;;2.83;2.60;;;26.00;78.10;;;;;;5111261;28;20837;-83
2022/07/15 13:56:27;;;;;;;2.47;2.27;;;25.70;77.90;;;;;;5103651;28;20512;-84
2022/07/15 13:59:12;;;;;;;5.53;1.90;;;26.40;83.80;;;;;;5069302;28;1051619;-83
2022/07/15 14:01:56;;;;;;;2.40;2.20;;;27.00;77.40;;;;;;5110935;28;20202;-83
2022/07/15 14:04:41;;;;;;;2.27;2.07;;;27.10;75.80;;;;;;5102184;28;20439;-83
2022/07/15 14:07:26;;;;;;;4.37;2.67;;;27.40;71.80;;;;;;5115213;28;20530;-84
2022/07/15 14:10:11;;;;;;;3.20;2.40;;;27.80;74.50;;;;;;5111969;28;20521;-84
2022/07/15 14:12:56;;;;;;;3.17;2.43;;;28.20;71.40;;;;;;5111660;28;20208;-83
2022/07/15 14:15:44;;;;;;;2.33;2.03;;;28.60;70.50;;;;;;5073049;28;20189;-83
2022/07/15 14:18:43;;;;;;;2.85;2.58;;;29.00;69.50;;;;;;5111026;27;20193;-82
2022/07/15 14:21:28;;;;;;;3.45;2.28;;;28.80;66.70;;;;;;5101222;28;20290;-83
2022/07/15 14:24:12;;;;;;;2.50;2.30;;;28.70;67.60;;;;;;5068442;28;20204;-83
2022/07/15 14:26:57;;;;;;;2.45;2.25;;;28.40;68.10;;;;;;5088082;28;20201;-84
2022/07/15 14:29:45;;;;;;;2.42;2.13;;;28.40;67.70;;;;;;5126986;28;20198;-83
2022/07/15 14:32:30;;;;;;;3.13;2.40;;;28.20;68.80;;;;;;5103789;28;20189;-83
2022/07/15 14:35:40;;;;;;;3.25;2.33;;;28.30;69.20;;;;;;5075783;28;20205;-84
2022/07/15 14:39:06;;;;;;;2.60;2.40;;;28.50;69.00;;;;;;5019439;28;20309;-83
2022/07/15 14:41:51;;;;;;;2.55;2.40;;;28.50;65.90;;;;;;4954047;28;20196;-83
2022/07/15 14:44:39;;;;;;;3.00;2.53;;;28.00;69.50;;;;;;4963017;29;20250;-83